• Join FlightAware (Why Join?)
  • Login
  • US Flag 
03:29AM EDT


 

Airport Tracker/Info


-or-


 

Live Flight TrackerFlight Track Log ✈ N913FD ✈ 10-May-2013 ✈ KMEM - KDSM

Flight Track Log - Related Links

Times and Time Zones

All times are in EDT time to prevent confusion due to time zone crossing. See the N913FD flight status page for this flight to view local times or setup timezone preferences in your user account.

Time Position Orientation Groundspeed Altitude Reporting Facility
EDT Latitude Longitude Course Direction KTS MPH feet Rate Location/Type
06:03AM 35.0167 -89.9667 129° Southeast 190 219 1,400  Level KMEM
06:04AM 34.9833 -89.9167 129° Southeast 238 274 4,200 3,180 Climbing KMEM
06:05AM 35.0000 -89.8333 76° East 310 357 7,600 3,120 Climbing KMEM
06:06AM 35.0389 -89.6925 71° East 338 389 11,600 2,580 Climbing Memphis Center
06:07AM 35.1072 -89.5931 50° Northeast 360 414 14,000 2,160 Climbing Memphis Center
06:08AM 35.2300 -89.5589 13° North 393 452 16,000 1,980 Climbing Memphis Center
06:09AM 35.3511 -89.5628 358° North 408 470 18,000 2,340 Climbing Memphis Center
06:10AM 35.4700 -89.5642 359° North 420 483 20,700 2,400 Climbing Memphis Center
06:11AM 35.5872 -89.6244 337° Northwest 426 490 22,800 2,100 Climbing Memphis Center
06:12AM 35.6731 -89.6953 326° Northwest 442 509 24,900 2,220 Climbing Memphis Center
06:13AM 35.7903 -89.7889 327° Northwest 457 526 27,300 2,040 Climbing Memphis Center
06:14AM 35.9219 -89.8750 332° Northwest 470 541 29,000 2,040 Climbing Memphis Center
06:15AM 36.0411 -89.9489 333° Northwest 481 554 31,400 2,100 Climbing Memphis Center
06:16AM 36.1644 -90.0253 333° Northwest 486 559 33,300 1,860 Climbing Memphis Center
06:17AM 36.2856 -90.1047 332° Northwest 486 559 35,200 1,320 Climbing Memphis Center
06:18AM 36.4067 -90.1842 332° Northwest 486 559 36,000 360 Climbing Memphis Center
06:19AM 36.5233 -90.2564 334° Northwest 486 559 36,000  Level Memphis Center
06:20AM 36.6442 -90.3336 333° Northwest 486 559 36,000  Level Memphis Center
06:22AM 36.8364 -90.4514 334° Northwest 477 549 36,000  Level Kansas City Center
06:23AM 36.9525 -90.5281 332° Northwest 472 543 36,000  Level Kansas City Center
06:24AM 37.0708 -90.6050 333° Northwest 476 548 36,000  Level Kansas City Center
06:25AM 37.1931 -90.6817 333° Northwest 484 557 36,000  Level Kansas City Center
06:26AM 37.3306 -90.7717 333° Northwest 486 559 36,000  Level Kansas City Center
06:27AM 37.4514 -90.8503 333° Northwest 488 562 36,000  Level Kansas City Center
06:28AM 37.5719 -90.9306 332° Northwest 490 564 36,000  Level Kansas City Center
06:29AM 37.6794 -91.0019 332° Northwest 489 563 36,000  Level Kansas City Center
06:30AM 37.8114 -91.0892 332° Northwest 486 559 36,000  Level Kansas City Center
06:31AM 37.9317 -91.1700 332° Northwest 487 560 36,000  Level Kansas City Center
06:32AM 38.0511 -91.2497 332° Northwest 487 560 36,000  Level Kansas City Center
06:33AM 38.1675 -91.3275 332° Northwest 480 552 36,000  Level Kansas City Center
06:34AM 38.2833 -91.4064 332° Northwest 475 547 36,000  Level Kansas City Center
06:40AM 38.9900 -91.8880 332° Northwest 450 518 36,000  Level FlightAware
06:41AM 39.0630 -91.9370 332° Northwest 448 516 36,000  Level FlightAware
06:41AM 39.1390 -91.9900 332° Northwest 447 514 36,000  Level FlightAware
06:42AM 39.2200 -92.0470 331° Northwest 447 514 36,000  Level FlightAware
06:43AM 39.2920 -92.0970 332° Northwest 447 514 36,000  Level FlightAware
06:44AM 39.3760 -92.1550 332° Northwest 447 514 36,000  Level FlightAware
06:44AM 39.4470 -92.2050 331° Northwest 447 514 36,000  Level FlightAware
06:45AM 39.5190 -92.2560 331° Northwest 448 516 36,000  Level FlightAware
06:46AM 39.5950 -92.3090 332° Northwest 449 517 36,000 -240 Level FlightAware
06:46AM 39.6750 -92.3650 332° Northwest 448 516 35,700 -1,080 Descending FlightAware
06:47AM 39.7490 -92.4190 331° Northwest 454 522 34,500 -1,740 Descending FlightAware
06:48AM 39.8330 -92.4770 332° Northwest 459 528 33,300 -1,740 Descending FlightAware
06:48AM 39.9090 -92.5310 331° Northwest 464 534 32,100 -1,140 Descending FlightAware
06:49AM 39.9850 -92.5850 331° Northwest 463 533 31,800 -600 Descending FlightAware
06:50AM 40.0870 -92.6590 331° Northwest 454 522 31,100 -2,700 Descending FlightAware
06:51AM 40.1690 -92.7170 332° Northwest 450 518 27,300 -3,420 Descending FlightAware
06:51AM 40.2350 -92.7650 331° Northwest 447 514 26,600 -1,740 Descending FlightAware
06:52AM 40.3100 -92.8190 331° Northwest 447 514 25,000 -1,980 Descending FlightAware
06:53AM 40.4130 -92.8930 331° Northwest 436 502 23,300 -2,340 Descending FlightAware
06:54AM 40.4750 -92.9380 331° Northwest 426 490 21,300 -1,440 Descending FlightAware
06:54AM 40.5480 -92.9920 331° Northwest 426 490 21,300  Level FlightAware
06:55AM 40.6070 -93.0350 331° Northwest 426 490 21,300  Level FlightAware
06:56AM 40.6660 -93.0770 332° Northwest 426 490 21,300  Level FlightAware
06:56AM 40.7240 -93.1200 331° Northwest 426 490 21,300  Level FlightAware
06:57AM 40.7830 -93.1630 331° Northwest 426 490 21,300 -9,780 Level FlightAware
06:57AM 40.8231 -93.1903 331° Northwest 380 437 12,200 -8,220 Descending Chicago Center
06:58AM 40.9117 -93.2353 339° North 349 402 10,800 -1,200 Descending Chicago Center
07:00AM 41.0097 -93.2806 341° North 288 331 9,700 -1,200 Descending Minneapolis Center
07:00AM 41.0356 -93.2825 357° North 268 308 9,200 -2,040 Descending Minneapolis Center
07:01AM 41.0753 -93.3128 330° Northwest 253 291 7,700 -1,980 Descending Minneapolis Center
07:01AM 41.1000 -93.3150 356° North 249 287 7,200 -2,040 Descending Minneapolis Center
07:02AM 41.1392 -93.3436 331° Northwest 246 283 5,700 -1,980 Descending Minneapolis Center
07:02AM 41.1647 -93.3475 353° North 245 282 5,200 -1,320 Descending Minneapolis Center
07:03AM 41.1864 -93.3686 324° Northwest 240 276 4,400 -1,740 Descending Minneapolis Center
07:03AM 41.2247 -93.3775 350° North 237 273 3,500 -1,440 Descending Minneapolis Center
07:04AM 41.2614 -93.4050 331° Northwest 234 269 3,000 -540 Descending Minneapolis Center
07:04AM 41.2828 -93.4053 359° North 227 261 3,000  Level Minneapolis Center
07:05AM 41.3142 -93.4314 328° Northwest 208 239 3,000  Level Minneapolis Center
07:05AM 41.3408 -93.4328 358° North 193 222 3,000  Level Minneapolis Center
07:06AM 41.3597 -93.4544 319° Northwest 183 211 3,000  Level Minneapolis Center
07:06AM 41.3858 -93.4564 357° North 173 199 3,000  Level Minneapolis Center
07:07AM 41.4014 -93.4750 318° Northwest 164 189 3,000  Level Minneapolis Center
07:07AM 41.4203 -93.4753 359° North 158 182 3,000  Level Minneapolis Center
07:08AM 41.4339 -93.5117 297° West 159 183 3,000  Level Minneapolis Center
07:08AM 41.4519 -93.5194 342° North 154 177 3,000  Level Minneapolis Center
07:09AM 41.4625 -93.5528 293° West 154 177 3,000 -360 Level Minneapolis Center
07:09AM 41.4792 -93.5611 339° North 149 171 2,600 -840 Descending Minneapolis Center
07:10AM 41.4883 -93.5908 292° West 132 152 2,200 -600 Descending Minneapolis Center
07:10AM 41.5019 -93.5953 346° North 125 144 2,000 -600 Descending Minneapolis Center
07:11AM 41.5108 -93.6236 293° West 121 139 1,600 -660 Descending Minneapolis Center
07:12AM 41.5300 -93.6514 313° West 120 138 1,000 -600 Descending Minneapolis Center